Time;durP1;ratioP1;P1;durP2;ratioP2;P2;SDS_P1;SDS_P2;PMS_P1;PMS_P2;Temp;Humidity;BMP_temperature;BMP_pressure;BME280_temperature;BME280_humidity;BME280_pressure;Samples;Min_cycle;Max_cycle;Signal;HPM_P1;HPM_P2
2023/09/21 00:01:19;;;;;;;3.83;2.95;;;;;;;18.56;59.93;100129.16;5025502;28;20268;-68
2023/09/21 00:03:48;;;;;;;3.83;3.13;;;;;;;18.53;60.09;100124.06;5032759;28;20218;-68
2023/09/21 00:06:19;;;;;;;4.35;3.40;;;;;;;18.49;60.06;100119.91;5030561;28;20202;-68
2023/09/21 00:08:49;;;;;;;4.72;3.50;;;;;;;18.42;60.22;100115.84;5031177;28;20289;-68
2023/09/21 00:11:18;;;;;;;5.75;3.33;;;;;;;18.40;60.53;100117.66;5026216;28;20245;-67
2023/09/21 00:13:46;;;;;;;7.47;3.50;;;;;;;18.35;60.88;100123.94;5031636;28;20296;-65
2023/09/21 00:16:17;;;;;;;3.80;3.40;;;;;;;18.32;60.88;100120.59;5027550;28;20725;-67
2023/09/21 00:18:46;;;;;;;4.40;3.35;;;;;;;18.33;60.92;100117.91;5028505;28;20244;-65
2023/09/21 00:21:15;;;;;;;4.50;3.45;;;;;;;18.33;60.88;100122.28;5026288;28;20282;-66
2023/09/21 00:23:47;;;;;;;6.07;3.75;;;;;;;18.32;60.70;100112.78;5030592;28;20300;-67
2023/09/21 00:26:16;;;;;;;6.43;3.45;;;;;;;18.31;61.04;100116.31;5020026;28;20217;-67
2023/09/21 00:28:44;;;;;;;5.22;3.20;;;;;;;18.30;60.95;100117.22;5034041;28;20203;-67
2023/09/21 00:31:13;;;;;;;4.00;3.00;;;;;;;18.30;60.95;100107.63;5027185;28;20716;-66
2023/09/21 00:33:41;;;;;;;6.78;3.33;;;;;;;18.30;61.10;100112.84;5024029;28;20215;-67
2023/09/21 00:36:13;;;;;;;3.65;3.30;;;;;;;18.29;60.79;100110.28;5024055;28;20306;-67
2023/09/21 00:38:41;;;;;;;4.82;3.40;;;;;;;18.26;60.66;100111.28;5034154;28;20201;-65
2023/09/21 00:41:11;;;;;;;4.28;3.50;;;;;;;18.26;60.94;100116.50;5025326;28;20662;-68
2023/09/21 00:43:40;;;;;;;4.43;3.25;;;;;;;18.24;61.04;100117.47;5028817;28;20206;-66
2023/09/21 00:46:09;;;;;;;8.65;3.42;;;;;;;18.23;61.20;100115.78;5025353;28;20241;-66
2023/09/21 00:48:42;;;;;;;5.13;3.38;;;;;;;18.24;61.14;100112.25;5021877;28;20248;-65
2023/09/21 00:51:13;;;;;;;4.03;2.72;;;;;;;18.22;61.27;100109.69;5024336;28;20203;-68
2023/09/21 00:53:45;;;;;;;5.40;3.72;;;;;;;18.22;61.10;100111.47;5033138;28;20226;-67
2023/09/21 00:56:18;;;;;;;5.80;3.78;;;;;;;18.18;61.19;100108.13;5028844;28;20198;-66
2023/09/21 00:58:50;;;;;;;6.28;3.60;;;;;;;18.15;61.38;100103.03;5028667;28;20670;-64
2023/09/21 01:01:21;;;;;;;5.05;3.20;;;;;;;18.13;61.78;100110.09;5033407;28;20213;-66
2023/09/21 01:03:52;;;;;;;5.32;3.40;;;;;;;18.10;61.74;100120.66;5031227;28;20682;-65
2023/09/21 01:06:20;;;;;;;5.68;3.85;;;;;;;18.07;61.88;100110.34;5025392;28;20238;-67
2023/09/21 01:08:49;;;;;;;4.78;3.92;;;;;;;18.04;61.95;100113.06;5028113;28;20225;-69
2023/09/21 01:11:19;;;;;;;6.13;3.90;;;;;;;18.03;62.16;100114.00;5025001;28;20202;-66
2023/09/21 01:13:48;;;;;;;5.80;4.00;;;;;;;18.01;62.37;100116.69;5031299;28;20228;-65
2023/09/21 01:16:17;;;;;;;5.75;4.13;;;;;;;17.98;62.32;100115.94;5029275;28;20211;-67
2023/09/21 01:18:46;;;;;;;5.93;3.50;;;;;;;17.98;62.66;100119.41;5029944;28;20233;-65
2023/09/21 01:21:22;;;;;;;5.70;4.30;;;;;;;17.96;62.63;100117.75;5036698;28;20198;-66
2023/09/21 01:23:52;;;;;;;5.88;4.32;;;;;;;17.94;62.42;100109.16;5036051;28;20675;-66
2023/09/21 01:26:20;;;;;;;7.72;4.40;;;;;;;17.91;62.58;100117.13;5029590;28;20202;-65
2023/09/21 01:28:49;;;;;;;7.53;4.07;;;;;;;17.87;62.54;100108.56;5028330;28;20202;-68
2023/09/21 01:31:18;;;;;;;4.57;4.13;;;;;;;17.89;62.54;100116.31;5031232;28;20194;-65
2023/09/21 01:33:47;;;;;;;11.60;4.40;;;;;;;17.84;62.92;100113.91;5026849;28;20258;-66
2023/09/21 01:36:16;;;;;;;5.03;4.10;;;;;;;17.81;63.02;100120.06;5031314;28;20198;-67
2023/09/21 01:38:46;;;;;;;7.07;4.35;;;;;;;17.77;63.04;100123.72;5027493;28;20257;-64
2023/09/21 01:41:18;;;;;;;6.80;4.97;;;;;;;17.71;63.38;100117.88;5034482;28;20234;-66
2023/09/21 01:43:47;;;;;;;6.13;4.30;;;;;;;17.69;63.38;100117.09;5030948;28;20224;-64
2023/09/21 01:46:19;;;;;;;5.13;4.40;;;;;;;17.60;63.73;100110.50;5029935;28;20287;-69
2023/09/21 01:48:47;;;;;;;6.60;4.30;;;;;;;17.56;63.76;100111.50;5028431;28;20715;-66
2023/09/21 01:51:16;;;;;;;6.18;4.55;;;;;;;17.54;64.10;100113.34;5026508;28;20224;-66
2023/09/21 01:53:45;;;;;;;7.18;4.50;;;;;;;17.53;63.95;100115.09;5026718;28;20214;-67
2023/09/21 01:56:15;;;;;;;7.90;4.45;;;;;;;17.45;64.40;100114.53;5028407;28;20233;-66
2023/09/21 01:58:44;;;;;;;7.00;4.32;;;;;;;17.40;64.54;100103.44;5030312;28;20320;-66
2023/09/21 02:01:15;;;;;;;7.10;4.95;;;;;;;17.39;64.48;100105.19;5030410;28;20203;-66
2023/09/21 02:03:44;;;;;;;6.22;4.28;;;;;;;17.38;64.73;100111.31;5034032;28;20202;-66
2023/09/21 02:06:12;;;;;;;8.05;4.47;;;;;;;17.37;64.82;100104.41;5030394;28;20214;-68
2023/09/21 02:08:40;;;;;;;8.98;4.70;;;;;;;17.37;64.56;100104.41;5031108;28;20636;-66
2023/09/21 02:11:10;;;;;;;4.88;4.32;;;;;;;17.37;64.74;100103.56;5026876;28;20210;-64
2023/09/21 02:13:38;;;;;;;5.13;4.15;;;;;;;17.37;64.73;100101.78;5031499;28;20207;-66
2023/09/21 02:16:07;;;;;;;5.40;4.07;;;;;;;17.38;64.79;100106.13;5031604;28;20210;-66
2023/09/21 02:18:35;;;;;;;9.20;4.78;;;;;;;17.36;64.73;100105.31;5029678;28;20655;-67
2023/09/21 02:21:07;;;;;;;6.05;4.18;;;;;;;17.36;64.75;100112.28;5028749;28;20702;-67
2023/09/21 02:23:37;;;;;;;7.53;4.43;;;;;;;17.33;64.71;100104.59;5028091;28;20207;-66
2023/09/21 02:26:06;;;;;;;5.85;4.15;;;;;;;17.30;65.10;100102.94;5027733;28;20292;-66
2023/09/21 02:28:34;;;;;;;7.20;4.32;;;;;;;17.31;64.91;100107.25;5024167;28;20642;-65
2023/09/21 02:31:06;;;;;;;5.90;4.30;;;;;;;17.30;64.87;100108.16;5031046;28;20845;-67
2023/09/21 02:33:38;;;;;;;6.85;4.32;;;;;;;17.27;64.85;100108.28;5032046;28;20207;-67
2023/09/21 02:36:13;;;;;;;7.60;4.78;;;;;;;17.24;64.99;100108.41;5033193;28;20219;-67
2023/09/21 02:38:41;;;;;;;6.57;4.57;;;;;;;17.20;65.00;100101.63;5023076;28;20293;-68
2023/09/21 02:41:10;;;;;;;6.03;4.28;;;;;;;17.17;65.06;100095.66;5028825;28;20268;-67
2023/09/21 02:43:40;;;;;;;4.85;4.35;;;;;;;17.18;65.21;100102.56;5034601;28;20210;-65
2023/09/21 02:46:08;;;;;;;5.72;4.80;;;;;;;17.19;65.10;100104.25;5034009;28;20198;-65
2023/09/21 02:48:38;;;;;;;6.68;4.38;;;;;;;17.19;65.30;100091.25;5028464;28;20268;-67
2023/09/21 02:51:06;;;;;;;7.15;4.40;;;;;;;17.17;65.28;100086.09;5031261;28;20553;-66
2023/09/21 02:53:34;;;;;;;5.78;4.85;;;;;;;17.18;65.29;100087.78;5025985;28;20218;-65
2023/09/21 02:56:03;;;;;;;6.25;4.28;;;;;;;17.17;65.49;100082.66;5025786;28;20628;-65
2023/09/21 02:58:31;;;;;;;5.88;4.32;;;;;;;17.18;65.60;100082.59;5029647;28;20245;-66
2023/09/21 03:00:59;;;;;;;6.70;4.28;;;;;;;17.19;65.28;100083.44;5031901;28;20249;-66
2023/09/21 03:03:30;;;;;;;5.90;4.53;;;;;;;17.18;65.57;100081.75;5035581;28;20736;-66
2023/09/21 03:06:00;;;;;;;6.80;4.30;;;;;;;17.19;65.36;100079.06;5031301;28;20306;-66
2023/09/21 03:08:28;;;;;;;6.15;4.28;;;;;;;17.16;65.25;100076.59;5033261;28;20644;-65
2023/09/21 03:10:56;;;;;;;6.72;4.20;;;;;;;17.19;65.42;100080.81;5033722;28;20203;-65
2023/09/21 03:13:25;;;;;;;5.78;4.13;;;;;;;17.18;65.41;100076.53;5032079;28;20202;-65
2023/09/21 03:15:58;;;;;;;6.40;4.22;;;;;;;17.17;65.45;100077.44;5029483;28;20234;-67
2023/09/21 03:18:27;;;;;;;5.60;4.60;;;;;;;17.13;65.41;100071.50;5031716;28;20272;-65
2023/09/21 03:20:56;;;;;;;6.28;4.75;;;;;;;17.11;65.37;100070.69;5033643;28;20199;-64
2023/09/21 03:23:30;;;;;;;7.45;4.97;;;;;;;17.06;65.65;100067.44;5035063;28;20205;-64
2023/09/21 03:25:58;;;;;;;8.15;4.78;;;;;;;17.02;65.90;100065.84;5025850;28;20609;-66
2023/09/21 03:28:26;;;;;;;6.10;4.90;;;;;;;16.94;66.29;100060.94;5030105;28;20305;-67
2023/09/21 03:30:56;;;;;;;6.50;5.00;;;;;;;16.91;66.71;100063.66;5028726;28;20657;-64
2023/09/21 03:33:26;;;;;;;5.38;4.28;;;;;;;16.88;66.67;100067.22;5037640;28;20199;-64
2023/09/21 03:35:56;;;;;;;5.18;4.43;;;;;;;16.86;66.58;100066.44;5031699;28;20215;-65
2023/09/21 03:38:27;;;;;;;7.28;4.78;;;;;;;16.82;66.72;100072.63;5037468;28;20203;-66
2023/09/21 03:40:58;;;;;;;7.10;4.40;;;;;;;16.79;67.18;100071.91;5027143;28;20198;-64
2023/09/21 03:43:26;;;;;;;6.10;4.60;;;;;;;16.75;67.27;100067.72;5039973;28;20276;-67
2023/09/21 03:45:55;;;;;;;7.68;4.85;;;;;;;16.73;67.46;100064.31;5032308;28;20206;-65
2023/09/21 03:48:23;;;;;;;6.80;4.95;;;;;;;16.72;67.57;100065.22;5020672;28;20210;-66
2023/09/21 03:50:55;;;;;;;5.32;4.32;;;;;;;16.69;67.50;100063.56;5027007;28;20290;-67
2023/09/21 03:53:23;;;;;;;5.10;4.50;;;;;;;16.70;67.97;100069.63;5026859;28;20653;-65
2023/09/21 03:55:57;;;;;;;7.88;4.43;;;;;;;16.71;67.90;100074.75;5032835;28;20214;-67
2023/09/21 03:58:28;;;;;;;6.82;4.70;;;;;;;16.69;67.74;100073.97;5031026;28;20616;-65
2023/09/21 04:00:56;;;;;;;8.23;4.70;;;;;;;16.67;67.91;100068.81;5034768;28;20221;-66
2023/09/21 04:03:26;;;;;;;11.20;4.55;;;;;;;16.65;67.94;100072.38;5032037;28;20230;-68
2023/09/21 04:05:54;;;;;;;7.03;4.80;;;;;;;16.63;68.22;100062.03;5022772;28;20239;-66
2023/09/21 04:08:22;;;;;;;7.80;4.88;;;;;;;16.62;68.20;100062.09;5029375;28;20206;-65
2023/09/21 04:10:50;;;;;;;7.68;5.18;;;;;;;16.62;68.55;100064.69;5024432;28;20215;-68
2023/09/21 04:13:20;;;;;;;5.68;4.53;;;;;;;16.59;68.52;100062.19;5032086;28;20198;-64
2023/09/21 04:15:48;;;;;;;6.95;4.93;;;;;;;16.58;68.73;100057.91;5023648;28;20215;-66
2023/09/21 04:18:16;;;;;;;5.80;4.47;;;;;;;16.56;68.79;100052.72;5030659;28;20267;-66
2023/09/21 04:20:44;;;;;;;5.75;4.10;;;;;;;16.55;68.87;100052.81;5028683;28;20213;-66
2023/09/21 04:23:12;;;;;;;5.55;4.30;;;;;;;16.55;68.85;100050.19;5029135;28;20222;-67
2023/09/21 04:25:47;;;;;;;6.57;4.22;;;;;;;16.50;68.92;100047.78;5028761;28;20206;-66
2023/09/21 04:28:15;;;;;;;6.90;5.18;;;;;;;16.53;68.74;100047.66;5030727;28;20210;-65
2023/09/21 04:30:44;;;;;;;5.00;4.18;;;;;;;16.55;68.78;100045.84;5032740;28;20218;-65
2023/09/21 04:33:12;;;;;;;6.18;4.25;;;;;;;16.58;68.79;100047.50;5025511;28;20207;-67
2023/09/21 04:35:40;;;;;;;8.73;4.70;;;;;;;16.59;68.70;100046.59;5032403;28;20305;-66
2023/09/21 04:38:08;;;;;;;5.63;4.57;;;;;;;16.61;68.71;100050.84;5028103;28;20285;-65
2023/09/21 04:40:36;;;;;;;5.10;4.53;;;;;;;16.63;68.64;100053.38;5032101;28;20207;-65
2023/09/21 04:43:04;;;;;;;7.45;4.63;;;;;;;16.63;68.67;100049.00;5028091;28;20211;-67
2023/09/21 04:45:33;;;;;;;8.60;4.78;;;;;;;16.64;68.73;100047.25;5029713;28;20226;-66
2023/09/21 04:48:03;;;;;;;7.63;5.20;;;;;;;16.60;68.81;100048.28;5029556;28;20202;-69
2023/09/21 04:50:32;;;;;;;6.63;5.03;;;;;;;16.59;68.93;100052.63;5034584;28;20201;-67
2023/09/21 04:53:00;;;;;;;5.88;5.10;;;;;;;16.57;69.06;100045.78;5029026;28;20222;-66
2023/09/21 04:55:28;;;;;;;8.73;5.00;;;;;;;16.53;69.32;100049.41;5022116;28;20207;-65
2023/09/21 04:57:56;;;;;;;8.70;5.28;;;;;;;16.50;69.41;100046.94;5030578;28;20198;-67
2023/09/21 05:00:24;;;;;;;9.18;4.88;;;;;;;16.49;69.61;100046.06;5026352;28;20321;-66
2023/09/21 05:02:52;;;;;;;7.13;4.75;;;;;;;16.49;69.53;100035.66;5027327;28;20285;-68
2023/09/21 05:05:26;;;;;;;9.43;6.18;;;;;;;16.49;69.61;100037.41;5031892;28;20209;-68
2023/09/21 05:07:55;;;;;;;6.93;4.82;;;;;;;16.52;69.65;100039.91;5023953;28;20202;-67
2023/09/21 05:10:23;;;;;;;8.65;5.78;;;;;;;16.53;69.59;100031.19;5029641;28;20206;-68
2023/09/21 05:12:51;;;;;;;7.78;5.50;;;;;;;16.58;69.26;100029.28;5022863;28;20203;-68
2023/09/21 05:15:21;;;;;;;9.45;6.05;;;;;;;16.62;69.15;100041.28;5038003;28;20605;-67
2023/09/21 05:17:49;;;;;;;5.82;5.22;;;;;;;16.63;69.32;100037.75;5025817;28;20632;-67
2023/09/21 05:20:17;;;;;;;6.22;5.47;;;;;;;16.65;69.15;100031.59;5038537;28;20707;-67
2023/09/21 05:22:48;;;;;;;10.55;5.10;;;;;;;16.69;69.09;100032.34;5026613;28;20717;-66
2023/09/21 05:25:16;;;;;;;5.00;4.60;;;;;;;16.69;69.07;100037.53;5032207;28;20646;-68
2023/09/21 05:27:44;;;;;;;7.20;5.22;;;;;;;16.67;69.22;100034.97;5030796;28;20297;-68
2023/09/21 05:30:14;;;;;;;7.10;5.25;;;;;;;16.70;69.30;100036.63;5037267;28;20198;-65
2023/09/21 05:32:42;;;;;;;8.65;5.40;;;;;;;16.69;69.33;100042.75;5029233;28;20202;-65
2023/09/21 05:35:15;;;;;;;7.82;5.20;;;;;;;16.71;69.73;100030.50;5037823;28;20712;-70
2023/09/21 05:37:44;;;;;;;6.88;5.63;;;;;;;16.74;69.41;100032.19;5030673;28;20281;-70
2023/09/21 05:40:14;;;;;;;6.22;4.78;;;;;;;16.75;69.57;100036.50;5030404;28;20257;-71
2023/09/21 05:42:44;;;;;;;8.98;4.97;;;;;;;16.77;69.52;100030.34;5024927;28;20214;-73
2023/09/21 05:45:12;;;;;;;6.38;5.13;;;;;;;16.75;69.91;100024.31;5028279;28;20199;-66
2023/09/21 05:47:40;;;;;;;8.20;5.25;;;;;;;16.82;70.14;100028.41;5030605;28;20211;-66
2023/09/21 05:50:09;;;;;;;5.88;5.28;;;;;;;16.84;70.50;100029.19;5035972;28;20214;-66
2023/09/21 05:52:36;;;;;;;8.18;5.25;;;;;;;16.85;70.25;100028.28;5029048;28;20222;-66
2023/09/21 05:55:05;;;;;;;5.55;5.00;;;;;;;16.86;70.53;100031.72;5035749;28;20198;-68
2023/09/21 05:57:35;;;;;;;7.60;5.47;;;;;;;16.86;70.47;100031.72;5029761;28;20221;-68
2023/09/21 06:00:03;;;;;;;6.72;5.40;;;;;;;16.89;70.56;100037.66;5028279;28;20238;-66
2023/09/21 06:02:33;;;;;;;8.68;5.50;;;;;;;16.92;70.69;100033.28;5028033;28;20225;-67
2023/09/21 06:05:01;;;;;;;7.70;5.18;;;;;;;16.94;70.66;100032.31;5022592;28;20208;-65
2023/09/21 06:07:29;;;;;;;8.50;5.15;;;;;;;16.95;70.66;100030.56;5037775;28;20361;-67
2023/09/21 06:09:57;;;;;;;7.88;5.90;;;;;;;16.98;70.95;100033.88;5030560;28;20214;-67
2023/09/21 06:12:27;;;;;;;8.98;5.70;;;;;;;17.01;70.96;100033.78;5033569;28;20206;-66
2023/09/21 06:14:58;;;;;;;7.13;4.93;;;;;;;17.04;70.98;100035.38;5035523;28;20244;-65
2023/09/21 06:17:27;;;;;;;9.02;5.68;;;;;;;17.10;71.06;100041.22;5031186;28;20252;-68
2023/09/21 06:19:55;;;;;;;9.60;5.57;;;;;;;17.18;70.99;100040.91;5035252;28;20249;-65
2023/09/21 06:22:23;;;;;;;8.73;5.50;;;;;;;17.25;70.72;100041.53;5033841;28;20209;-66
2023/09/21 06:24:52;;;;;;;8.02;4.97;;;;;;;17.32;70.64;100051.66;5034194;28;20203;-64
2023/09/21 06:27:20;;;;;;;8.10;5.50;;;;;;;17.42;70.40;100039.13;5031676;28;20254;-67
2023/09/21 06:29:49;;;;;;;7.35;5.57;;;;;;;17.59;69.93;100035.81;5033425;28;20284;-67
2023/09/21 06:32:19;;;;;;;7.82;5.60;;;;;;;17.81;69.03;100039.28;5020611;28;20262;-66
2023/09/21 06:34:48;;;;;;;6.95;5.30;;;;;;;18.17;68.38;100028.22;5023361;28;20210;-65
2023/09/21 06:37:18;;;;;;;5.88;4.95;;;;;;;18.74;66.29;100033.56;5034149;28;20806;-66
2023/09/21 06:39:46;;;;;;;6.97;4.97;;;;;;;19.38;63.99;100033.16;5028404;28;20207;-66
2023/09/21 06:42:16;;;;;;;6.97;4.47;;;;;;;20.20;62.02;100025.59;5031912;28;20206;-67
2023/09/21 06:44:44;;;;;;;4.78;4.03;;;;;;;21.22;58.51;100021.03;5031848;28;20571;-68
2023/09/21 06:47:16;;;;;;;6.07;4.53;;;;;;;22.46;55.10;100026.97;5036423;28;20305;-66
2023/09/21 06:49:47;;;;;;;7.57;4.47;;;;;;;24.00;50.70;100023.22;5039540;28;20660;-67
2023/09/21 06:52:17;;;;;;;7.63;4.28;;;;;;;25.40;46.39;100020.38;5044507;28;20298;-67
2023/09/21 06:54:45;;;;;;;6.65;3.88;;;;;;;26.51;43.12;100023.44;5037269;28;20248;-67
2023/09/21 06:57:15;;;;;;;7.90;4.00;;;;;;;27.18;40.73;100022.56;5035022;28;20680;-67
2023/09/21 06:59:43;;;;;;;6.63;4.20;;;;;;;27.42;39.86;100027.66;5027556;28;20774;-68
2023/09/21 07:02:11;;;;;;;6.70;3.90;;;;;;;27.40;39.87;100019.84;5032574;28;20218;-72
2023/09/21 07:04:39;;;;;;;5.80;3.72;;;;;;;27.37;39.61;100025.38;5027837;28;20589;-71
2023/09/21 07:07:09;;;;;;;4.40;3.78;;;;;;;27.45;39.50;100020.31;5036138;28;20222;-72
2023/09/21 07:09:37;;;;;;;7.40;4.00;;;;;;;27.64;39.38;100022.25;5030734;28;20217;-72
2023/09/21 07:12:06;;;;;;;5.32;3.80;;;;;;;28.18;39.12;100025.72;5034941;28;20257;-71
2023/09/21 07:14:36;;;;;;;6.53;3.97;;;;;;;28.95;36.96;100019.06;5036842;28;20256;-71
2023/09/21 07:17:06;;;;;;;6.53;4.47;;;;;;;29.79;35.88;100009.66;5028365;28;20203;-71
2023/09/21 07:19:34;;;;;;;5.53;3.70;;;;;;;30.61;34.36;100016.16;5028705;28;20219;-73
2023/09/21 07:22:04;;;;;;;7.38;3.75;;;;;;;31.43;32.86;100017.91;5034614;28;20211;-73
2023/09/21 07:24:34;;;;;;;5.40;3.88;;;;;;;32.29;31.15;100008.38;5024026;28;20689;-72
2023/09/21 07:27:02;;;;;;;7.10;4.03;;;;;;;33.18;30.05;100000.72;5041983;28;20626;-72
2023/09/21 07:29:33;;;;;;;5.18;3.72;;;;;;;34.03;28.78;100005.78;5027138;28;20659;-72
2023/09/21 07:32:02;;;;;;;5.70;3.60;;;;;;;34.58;28.02;100010.28;5025602;28;20211;-71
2023/09/21 07:34:30;;;;;;;4.80;3.38;;;;;;;34.96;26.91;100002.38;5033705;28;20605;-76
2023/09/21 07:36:58;;;;;;;4.35;3.40;;;;;;;35.07;26.43;100004.69;5028508;28;20218;-73
2023/09/21 07:39:28;;;;;;;7.53;3.60;;;;;;;35.24;26.54;100002.75;5040735;28;20214;-74
2023/09/21 07:42:00;;;;;;;5.65;3.75;;;;;;;35.48;25.80;100000.88;5036573;28;20719;-72
2023/09/21 07:44:28;;;;;;;6.05;3.10;;;;;;;35.56;25.90;99998.97;5033145;28;20198;-73
2023/09/21 07:46:57;;;;;;;5.57;4.05;;;;;;;35.86;26.07;99999.03;5031060;28;20214;-69
2023/09/21 07:49:25;;;;;;;6.78;3.63;;;;;;;36.13;25.30;99989.56;5028832;28;20203;-72
2023/09/21 07:51:55;;;;;;;4.78;3.67;;;;;;;36.51;24.48;99992.16;5033417;28;20273;-73
2023/09/21 07:54:23;;;;;;;7.13;3.28;;;;;;;36.52;24.49;99996.50;5026489;28;20657;-73
2023/09/21 07:56:51;;;;;;;5.70;3.80;;;;;;;36.42;24.55;99996.78;5024295;28;20230;-72
2023/09/21 07:59:21;;;;;;;6.72;3.85;;;;;;;36.39;25.01;99997.16;5032491;28;20667;-73
2023/09/21 08:01:51;;;;;;;5.22;3.58;;;;;;;36.58;24.31;99986.88;5029982;28;20198;-72
2023/09/21 08:04:20;;;;;;;7.80;4.07;;;;;;;36.64;24.42;99986.09;5039107;28;20670;-76
2023/09/21 08:06:49;;;;;;;6.72;4.03;;;;;;;36.85;24.64;99977.25;5035212;28;20202;-73
2023/09/21 08:09:18;;;;;;;7.63;3.90;;;;;;;36.97;24.19;99982.00;5026659;28;20228;-75
2023/09/21 08:11:59;;;;;;;9.77;4.45;;;;;;;36.76;24.34;99984.63;5028821;28;20604;-74
2023/09/21 08:14:31;;;;;;;7.90;3.88;;;;;;;36.37;24.49;99980.38;5034550;28;20202;-75
2023/09/21 08:17:00;;;;;;;5.78;3.72;;;;;;;35.67;25.72;99980.81;5033327;28;20604;-74
2023/09/21 08:19:28;;;;;;;4.82;3.63;;;;;;;34.62;26.45;99989.38;5033863;28;20237;-74
2023/09/21 08:21:58;;;;;;;5.22;3.55;;;;;;;33.67;28.41;99983.91;5027811;28;20206;-75
2023/09/21 08:24:26;;;;;;;5.70;3.83;;;;;;;32.50;29.85;99989.34;5033682;28;20202;-75
2023/09/21 08:26:54;;;;;;;7.68;3.78;;;;;;;31.61;32.07;99987.75;5027507;28;20195;-73
2023/09/21 08:29:22;;;;;;;5.13;3.30;;;;;;;31.15;32.46;99989.63;5031053;28;20224;-72
2023/09/21 08:31:52;;;;;;;5.03;3.50;;;;;;;30.82;33.73;99983.16;5032984;28;20272;-73
2023/09/21 08:34:20;;;;;;;4.43;3.35;;;;;;;30.34;34.08;99977.06;5027855;28;20226;-73
2023/09/21 08:36:48;;;;;;;6.32;3.15;;;;;;;29.98;35.35;99981.38;5035280;28;20211;-74
2023/09/21 08:39:16;;;;;;;3.83;3.00;;;;;;;29.77;35.45;99978.91;5032368;28;20202;-74
2023/09/21 08:41:50;;;;;;;5.88;3.80;;;;;;;29.51;36.23;99981.28;5029208;28;20214;-73
2023/09/21 08:44:18;;;;;;;5.55;3.63;;;;;;;29.25;36.14;99989.81;5026754;28;20603;-71
2023/09/21 08:46:47;;;;;;;8.77;4.03;;;;;;;29.02;36.89;99985.75;5031548;28;20206;-69
2023/09/21 08:49:18;;;;;;;7.53;3.65;;;;;;;28.65;38.18;99978.38;5027066;28;20214;-70
2023/09/21 08:51:47;;;;;;;4.60;3.30;;;;;;;28.25;38.50;99984.47;5031934;28;20735;-70
2023/09/21 08:54:15;;;;;;;4.88;3.22;;;;;;;27.79;39.57;99983.09;5029410;28;20661;-69
2023/09/21 08:56:44;;;;;;;4.85;3.55;;;;;;;27.55;40.20;99979.84;5030932;28;20203;-67
2023/09/21 08:59:15;;;;;;;3.65;2.92;;;;;;;27.34;40.64;99977.16;5028625;28;20237;-68
2023/09/21 09:01:43;;;;;;;6.88;3.45;;;;;;;27.17;41.10;99975.91;5028773;28;20203;-67
2023/09/21 09:04:11;;;;;;;6.20;3.72;;;;;;;27.13;41.53;99985.91;5031166;28;20674;-72
2023/09/21 09:06:41;;;;;;;5.85;3.75;;;;;;;27.19;41.38;99971.34;5031376;28;20241;-73
2023/09/21 09:09:09;;;;;;;4.35;3.38;;;;;;;27.24;41.59;99976.25;5032654;28;20673;-71
2023/09/21 09:11:40;;;;;;;6.38;3.40;;;;;;;27.18;41.55;99972.31;5033459;28;20729;-71
2023/09/21 09:14:13;;;;;;;4.35;3.40;;;;;;;27.07;42.34;99977.63;5031430;28;20600;-71
2023/09/21 09:16:41;;;;;;;6.43;3.60;;;;;;;27.04;42.24;99973.41;5028416;28;20211;-71
2023/09/21 09:19:11;;;;;;;7.55;3.88;;;;;;;27.00;42.36;99973.78;5026165;28;20221;-71
2023/09/21 09:21:41;;;;;;;4.05;3.38;;;;;;;27.07;42.53;99969.69;5036774;28;20584;-72
2023/09/21 09:24:11;;;;;;;8.98;3.22;;;;;;;27.16;42.78;99975.06;5031293;28;20209;-71
2023/09/21 09:26:40;;;;;;;8.57;3.30;;;;;;;27.21;42.21;99974.69;5031097;28;20249;-72
2023/09/21 09:29:12;;;;;;;4.75;3.42;;;;;;;27.29;41.90;99977.56;5036364;28;20220;-72
2023/09/21 09:31:41;;;;;;;6.75;3.28;;;;;;;27.38;41.59;99960.91;5025700;28;20205;-70
2023/09/21 09:34:16;;;;;;;5.53;3.03;;;;;;;27.51;41.50;99959.91;5026222;28;20211;-72
2023/09/21 09:36:49;;;;;;;6.53;3.30;;;;;;;27.58;41.16;99953.97;5027716;28;20212;-72
2023/09/21 09:39:18;;;;;;;3.58;3.05;;;;;;;27.50;41.18;99956.41;5023644;28;20687;-72
2023/09/21 09:41:49;;;;;;;4.38;3.13;;;;;;;27.43;41.53;99956.09;5032867;28;20218;-73
2023/09/21 09:44:22;;;;;;;5.55;3.38;;;;;;;27.42;41.65;99945.63;5030776;28;20226;-72
2023/09/21 09:46:56;;;;;;;4.55;3.20;;;;;;;27.37;41.27;99953.09;5032906;28;20257;-72
2023/09/21 09:49:28;;;;;;;5.97;3.10;;;;;;;27.30;41.83;99944.00;5036459;28;20646;-72
2023/09/21 09:52:01;;;;;;;6.72;3.05;;;;;;;27.23;41.60;99943.66;5038619;28;20205;-73
2023/09/21 09:54:30;;;;;;;5.22;2.53;;;;;;;27.21;42.16;99935.00;5037199;28;20252;-73
2023/09/21 09:57:01;;;;;;;4.70;2.90;;;;;;;27.28;41.84;99936.16;5043181;28;20198;-73
2023/09/21 09:59:31;;;;;;;5.88;2.85;;;;;;;27.38;41.03;99931.81;5037974;28;20249;-72
2023/09/21 10:02:00;;;;;;;6.38;3.17;;;;;;;27.55;41.08;99937.50;5033156;28;20264;-72
2023/09/21 10:04:36;;;;;;;4.55;2.92;;;;;;;27.72;40.92;99928.94;5029004;28;20576;-73
2023/09/21 10:07:06;;;;;;;6.32;3.00;;;;;;;27.91;40.45;99929.13;5030855;28;20210;-74
2023/09/21 10:09:34;;;;;;;3.25;2.95;;;;;;;28.10;39.99;99928.34;5030325;28;20211;-71
2023/09/21 10:12:04;;;;;;;4.28;2.85;;;;;;;28.24;39.60;99913.06;5033285;28;20234;-72
2023/09/21 10:14:36;;;;;;;6.65;2.40;;;;;;;28.29;38.77;99906.38;5035103;28;20337;-73
2023/09/21 10:17:06;;;;;;;2.60;2.40;;;;;;;28.31;38.87;99904.44;5032336;28;20657;-74
2023/09/21 10:19:38;;;;;;;4.18;2.15;;;;;;;28.18;38.36;99901.19;5035106;28;20211;-74
2023/09/21 10:22:25;;;;;;;4.18;2.22;;;;;;;28.04;39.42;99906.84;5039794;28;20252;-61
2023/09/21 10:24:58;;;;;;;2.65;2.35;;;;;;;28.07;39.54;99896.00;5033063;28;20198;-65
2023/09/21 10:27:28;;;;;;;4.18;2.60;;;;;;;28.19;39.50;99894.91;5038130;28;20657;-63
2023/09/21 10:30:02;;;;;;;3.13;2.42;;;;;;;28.24;39.19;99887.38;5035599;28;20617;-63
2023/09/21 10:32:42;;;;;;;6.70;3.00;;;;;;;28.34;39.20;99888.25;5026209;28;20211;-62
2023/09/21 10:35:14;;;;;;;3.97;2.40;;;;;;;28.48;39.19;99894.19;5028094;28;20202;-69
2023/09/21 10:37:43;;;;;;;5.30;2.72;;;;;;;28.54;38.72;99889.19;5036624;28;20261;-65
2023/09/21 10:40:20;;;;;;;3.55;2.20;;;;;;;28.53;38.98;99887.50;5029471;28;20562;-63
2023/09/21 10:42:48;;;;;;;4.55;2.58;;;;;;;28.57;38.69;99891.56;5035912;28;20253;-61
2023/09/21 10:45:16;;;;;;;3.22;2.50;;;;;;;28.61;38.88;99881.50;5034797;28;20294;-63
2023/09/21 10:47:49;;;;;;;2.70;2.13;;;;;;;28.68;37.52;99885.28;5031781;28;20678;-65
2023/09/21 10:50:20;;;;;;;4.22;2.40;;;;;;;28.65;37.48;99878.47;5033542;28;20225;-64
2023/09/21 10:52:52;;;;;;;4.97;2.50;;;;;;;28.71;37.12;99876.22;5030005;28;20600;-67
2023/09/21 10:55:21;;;;;;;3.63;2.10;;;;;;;28.76;37.07;99866.88;5023012;28;20206;-65
2023/09/21 10:57:54;;;;;;;3.20;2.50;;;;;;;28.78;37.61;99869.41;5031268;28;20202;-62
2023/09/21 11:00:22;;;;;;;3.50;2.35;;;;;;;28.80;37.65;99870.09;5029468;28;20269;-62
2023/09/21 11:02:53;;;;;;;4.65;2.25;;;;;;;28.73;37.71;99864.50;5031870;28;20669;-64
2023/09/21 11:05:22;;;;;;;3.63;2.08;;;;;;;28.67;37.77;99851.78;5033594;28;20207;-63
2023/09/21 11:07:55;;;;;;;4.50;2.28;;;;;;;28.49;38.32;99851.63;5036494;28;20264;-64
2023/09/21 11:10:24;;;;;;;4.88;2.42;;;;;;;28.34;39.13;99851.16;5030810;28;20593;-59
2023/09/21 11:12:52;;;;;;;4.07;2.50;;;;;;;28.34;39.36;99845.03;5032658;28;20206;-66
2023/09/21 11:15:21;;;;;;;4.28;2.67;;;;;;;28.32;39.49;99847.00;5024866;28;20603;-62
2023/09/21 11:17:54;;;;;;;4.32;2.20;;;;;;;28.30;39.92;99844.47;5027872;28;20220;-61
2023/09/21 11:20:23;;;;;;;3.85;2.38;;;;;;;28.22;39.72;99839.00;5032218;28;20568;-63
2023/09/21 11:22:54;;;;;;;2.75;2.22;;;;;;;28.05;40.36;99840.47;5039997;28;20669;-68
2023/09/21 11:25:22;;;;;;;5.53;2.55;;;;;;;28.01;40.36;99839.06;5032770;28;20206;-64
2023/09/21 11:27:52;;;;;;;3.20;2.35;;;;;;;28.03;40.36;99837.16;5031369;28;20210;-64
2023/09/21 11:30:22;;;;;;;3.80;2.50;;;;;;;28.06;39.77;99838.69;5030931;28;20219;-65
2023/09/21 11:32:51;;;;;;;2.58;1.98;;;;;;;28.03;40.04;99839.78;5037686;28;20203;-67
2023/09/21 11:35:21;;;;;;;4.10;2.40;;;;;;;27.92;40.25;99831.97;5033236;28;20209;-65
2023/09/21 11:37:51;;;;;;;2.70;2.30;;;;;;;27.89;40.59;99830.41;5040255;28;20213;-65